createdAt,value
2023-10-18T00:00:59.439Z,67.68
2023-10-18T00:03:30.519Z,68.06
2023-10-18T00:05:58.980Z,68.33
2023-10-18T00:08:29.556Z,69.26
2023-10-18T00:11:01.848Z,69.39
2023-10-18T00:13:32.015Z,69.41
2023-10-18T00:16:03.992Z,69.21
2023-10-18T00:18:33.654Z,69.17
2023-10-18T00:21:03.115Z,68.34
2023-10-18T00:23:33.128Z,67.87
2023-10-18T00:26:06.306Z,67.93
2023-10-18T00:28:35.288Z,67.97
2023-10-18T00:31:15.538Z,67.69
2023-10-18T00:33:43.714Z,67.44
2023-10-18T00:36:12.762Z,66.71
2023-10-18T00:38:42.258Z,67.03
2023-10-18T00:41:16.100Z,67.41
2023-10-18T00:43:46.721Z,67.48
2023-10-18T00:46:16.236Z,66.98
2023-10-18T00:48:46.817Z,66.72
2023-10-18T00:51:17.665Z,66.98
2023-10-18T00:53:49.016Z,66.85
2023-10-18T00:56:17.642Z,67.25
2023-10-18T00:58:47.661Z,67.69
2023-10-18T01:01:19.469Z,68.09
2023-10-18T01:03:53.174Z,68.75
2023-10-18T01:06:25.569Z,68.50
2023-10-18T01:08:57.394Z,68.18
2023-10-18T01:11:28.948Z,68.10
2023-10-18T01:13:58.049Z,67.66
2023-10-18T01:16:29.187Z,67.41
2023-10-18T01:18:57.789Z,67.18
2023-10-18T01:21:27.235Z,66.84
2023-10-18T01:24:00.958Z,67.03
2023-10-18T01:26:32.987Z,67.23
2023-10-18T01:29:04.761Z,66.99
2023-10-18T01:31:34.598Z,66.66
2023-10-18T01:34:04.748Z,66.82
2023-10-18T01:36:33.426Z,66.90
2023-10-18T01:39:01.852Z,66.51
2023-10-18T01:41:31.258Z,66.98
2023-10-18T01:44:07.176Z,66.83
2023-10-18T01:46:36.078Z,67.06
2023-10-18T01:49:05.927Z,67.82
2023-10-18T01:51:35.077Z,66.98
2023-10-18T01:54:06.446Z,67.03
2023-10-18T01:56:36.380Z,67.49
2023-10-18T01:59:08.831Z,68.75
2023-10-18T02:01:37.210Z,68.45
2023-10-18T02:04:12.571Z,68.59
2023-10-18T02:06:40.670Z,68.52
2023-10-18T02:09:11.466Z,68.41
2023-10-18T02:11:41.787Z,67.79
2023-10-18T02:14:10.391Z,66.91
2023-10-18T02:16:39.130Z,67.02
2023-10-18T02:19:09.285Z,67.06
2023-10-18T02:21:37.346Z,66.80
2023-10-18T02:24:07.462Z,67.07
2023-10-18T02:26:40.823Z,66.97
2023-10-18T02:29:13.555Z,67.06
2023-10-18T02:31:42.542Z,67.29
2023-10-18T02:34:29.276Z,67.44
2023-10-18T02:36:59.596Z,67.80
2023-10-18T02:39:34.122Z,68.23
2023-10-18T02:42:05.602Z,67.99
2023-10-18T02:44:36.272Z,67.87
2023-10-18T02:47:11.636Z,68.26
2023-10-18T02:49:40.106Z,68.81
2023-10-18T02:52:11.433Z,68.80
2023-10-18T02:54:41.070Z,68.57
2023-10-18T02:57:10.602Z,67.69
2023-10-18T02:59:42.286Z,68.50
2023-10-18T03:02:14.862Z,67.89
2023-10-18T03:04:44.858Z,67.50
2023-10-18T03:07:15.757Z,67.64
2023-10-18T03:09:49.555Z,67.96
2023-10-18T03:12:19.187Z,67.82
2023-10-18T03:14:56.569Z,67.34
2023-10-18T03:17:29.859Z,67.59
2023-10-18T03:19:58.664Z,67.54
2023-10-18T03:22:30.643Z,67.16
2023-10-18T03:25:01.458Z,67.42
2023-10-18T03:27:33.367Z,67.50
2023-10-18T03:30:18.560Z,66.86
2023-10-18T03:32:51.631Z,66.89
2023-10-18T03:35:21.580Z,67.11
2023-10-18T03:37:50.048Z,67.55
2023-10-18T03:40:21.783Z,67.51
2023-10-18T03:42:52.588Z,67.22
2023-10-18T03:45:22.670Z,67.25
2023-10-18T03:47:59.970Z,67.44
2023-10-18T03:50:36.923Z,67.55
2023-10-18T03:53:08.094Z,67.67
2023-10-18T03:55:40.787Z,66.94
2023-10-18T03:58:10.356Z,66.56
2023-10-18T04:00:48.337Z,66.87
2023-10-18T04:03:22.125Z,67.05
2023-10-18T04:05:53.575Z,67.62
2023-10-18T04:08:23.667Z,68.40
2023-10-18T04:10:59.771Z,68.28
2023-10-18T04:13:32.384Z,68.51
2023-10-18T04:16:11.009Z,68.19
2023-10-18T04:18:42.726Z,67.59
2023-10-18T04:21:16.306Z,67.62
2023-10-18T04:23:47.898Z,67.72
2023-10-18T04:26:19.813Z,67.58
2023-10-18T04:28:50.088Z,67.98
2023-10-18T04:31:22.857Z,67.50
2023-10-18T04:33:54.051Z,67.50
2023-10-18T04:36:22.792Z,67.80
2023-10-18T04:38:52.572Z,67.41
2023-10-18T04:41:28.048Z,67.24
2023-10-18T04:44:05.815Z,67.12
2023-10-18T04:46:37.677Z,67.29
2023-10-18T04:49:24.094Z,67.11
2023-10-18T04:51:55.566Z,66.92
2023-10-18T04:54:36.743Z,66.74
2023-10-18T04:57:07.293Z,66.80
2023-10-18T04:59:45.963Z,67.40
2023-10-18T05:02:18.659Z,67.13
2023-10-18T05:04:47.691Z,67.11
2023-10-18T05:07:19.196Z,66.98
2023-10-18T05:09:46.988Z,67.03
2023-10-18T05:12:29.562Z,67.12
2023-10-18T05:15:12.020Z,67.06
2023-10-18T05:17:43.835Z,67.16
2023-10-18T05:20:23.224Z,67.57
2023-10-18T05:22:54.103Z,67.56
2023-10-18T05:25:31.119Z,67.83
2023-10-18T05:28:08.573Z,67.85
2023-10-18T05:30:52.642Z,67.90
2023-10-18T05:33:48.931Z,67.76
2023-10-18T05:36:36.185Z,67.58
2023-10-18T05:39:22.662Z,67.98
2023-10-18T05:41:52.496Z,67.69
2023-10-18T05:44:21.936Z,67.57
2023-10-18T05:46:52.060Z,67.52
2023-10-18T05:49:29.389Z,67.26
2023-10-18T05:52:17.389Z,66.96
2023-10-18T05:54:49.007Z,67.03
2023-10-18T05:57:20.523Z,67.18
2023-10-18T05:59:51.217Z,67.12
2023-10-18T06:02:25.294Z,67.21
2023-10-18T06:04:57.215Z,67.34
2023-10-18T06:07:27.722Z,67.96
2023-10-18T06:10:00.385Z,67.98
2023-10-18T06:12:31.648Z,68.13
2023-10-18T06:15:14.453Z,67.90
2023-10-18T06:17:49.005Z,68.02
2023-10-18T06:20:28.497Z,68.38
2023-10-18T06:23:10.016Z,68.25
2023-10-18T06:25:45.585Z,68.22
2023-10-18T06:28:21.173Z,68.64
2023-10-18T06:30:52.619Z,68.45
2023-10-18T06:33:21.261Z,69.40
2023-10-18T06:35:53.788Z,69.70
2023-10-18T06:38:24.642Z,70.54
2023-10-18T06:43:26.459Z,70.01
2023-10-18T06:45:55.681Z,69.87
2023-10-18T06:48:27.835Z,70.26
2023-10-18T06:50:58.904Z,70.21
2023-10-18T06:53:27.975Z,70.16
2023-10-18T06:56:02.562Z,70.03
2023-10-18T06:58:43.421Z,69.80
2023-10-18T07:01:21.101Z,69.32
2023-10-18T07:03:50.248Z,69.43
2023-10-18T07:06:24.902Z,69.90
2023-10-18T07:08:53.209Z,69.91
2023-10-18T07:11:29.269Z,70.12
2023-10-18T07:14:05.437Z,70.35
2023-10-18T07:16:40.177Z,70.27
2023-10-18T07:19:26.264Z,70.14
2023-10-18T07:21:56.864Z,69.71
2023-10-18T07:24:33.796Z,69.73
2023-10-18T07:27:05.099Z,69.17
2023-10-18T07:29:37.330Z,69.02
2023-10-18T07:32:08.807Z,69.07
2023-10-18T07:34:37.999Z,69.42
2023-10-18T07:37:20.860Z,68.48
2023-10-18T07:39:52.148Z,67.73
2023-10-18T07:42:21.958Z,67.87
2023-10-18T07:44:54.289Z,67.53
2023-10-18T07:47:26.759Z,66.51
2023-10-18T07:49:59.346Z,66.79
2023-10-18T07:52:29.408Z,66.70
2023-10-18T07:54:57.987Z,66.78
2023-10-18T07:57:34.759Z,65.91
2023-10-18T08:00:18.733Z,66.10
2023-10-18T08:02:47.096Z,66.12
2023-10-18T08:05:19.888Z,66.25
2023-10-18T08:07:52.910Z,66.55
2023-10-18T08:10:22.386Z,66.61
2023-10-18T08:13:05.372Z,66.53
2023-10-18T08:15:36.778Z,66.22
2023-10-18T08:18:16.230Z,66.72
2023-10-18T08:21:07.788Z,66.17
2023-10-18T08:23:41.801Z,66.20
2023-10-18T08:26:09.843Z,66.21
2023-10-18T08:28:43.962Z,66.01
2023-10-18T08:31:16.859Z,66.02
2023-10-18T08:33:46.871Z,66.05
2023-10-18T08:36:15.983Z,66.05
2023-10-18T08:38:45.965Z,65.89
2023-10-18T08:41:17.227Z,66.12
2023-10-18T08:44:00.766Z,66.45
2023-10-18T08:46:29.258Z,66.09
2023-10-18T08:48:58.683Z,65.66
2023-10-18T08:51:30.060Z,65.80
2023-10-18T08:54:03.398Z,65.69
2023-10-18T08:56:34.366Z,65.96
2023-10-18T08:59:12.504Z,65.75
2023-10-18T09:02:01.872Z,65.27
2023-10-18T09:04:32.870Z,65.28
2023-10-18T09:07:19.009Z,65.13
2023-10-18T09:09:57.209Z,64.60
2023-10-18T09:12:53.649Z,63.64
2023-10-18T09:15:48.650Z,64.82
2023-10-18T09:18:21.193Z,64.74
2023-10-18T09:20:50.160Z,63.99
2023-10-18T09:23:21.675Z,64.55
2023-10-18T09:25:51.820Z,63.69
2023-10-18T09:28:26.922Z,63.50
2023-10-18T09:31:01.713Z,63.68
2023-10-18T09:33:33.201Z,64.02
2023-10-18T09:36:03.386Z,63.69
2023-10-18T09:38:40.457Z,63.47
2023-10-18T09:41:10.222Z,63.64
2023-10-18T09:43:38.582Z,62.98
2023-10-18T09:46:06.817Z,63.12
2023-10-18T09:48:39.680Z,62.66
2023-10-18T09:51:09.100Z,62.57
2023-10-18T09:53:44.206Z,61.67
2023-10-18T09:56:19.507Z,61.83
2023-10-18T09:58:49.330Z,61.64
2023-10-18T10:01:27.272Z,61.21
2023-10-18T10:03:57.551Z,61.38
2023-10-18T10:06:27.237Z,60.91
2023-10-18T10:09:13.043Z,61.29
2023-10-18T10:11:46.650Z,61.61
2023-10-18T10:14:18.264Z,60.93
2023-10-18T10:16:53.947Z,61.35
2023-10-18T10:19:27.165Z,62.05
2023-10-18T10:21:57.006Z,61.80
2023-10-18T10:24:34.801Z,61.43
2023-10-18T10:27:29.685Z,61.61
2023-10-18T10:29:57.775Z,60.10
2023-10-18T10:32:27.717Z,60.88
2023-10-18T10:35:12.941Z,61.58
2023-10-18T10:37:48.873Z,58.56
2023-10-18T10:40:37.013Z,60.59
2023-10-18T10:43:11.107Z,61.26
2023-10-18T10:45:39.512Z,60.22
2023-10-18T10:48:47.102Z,60.44
2023-10-18T10:51:17.968Z,59.57
2023-10-18T10:53:50.670Z,60.93
2023-10-18T10:56:27.932Z,60.74
2023-10-18T10:59:04.961Z,59.86
2023-10-18T11:02:07.410Z,60.77
2023-10-18T11:04:50.423Z,60.11
2023-10-18T11:07:26.552Z,60.64
2023-10-18T11:10:01.243Z,60.50
2023-10-18T11:12:30.780Z,59.23
2023-10-18T11:15:04.264Z,60.47
2023-10-18T11:17:36.150Z,59.38
2023-10-18T11:20:19.177Z,59.97
2023-10-18T11:22:48.907Z,60.17
2023-10-18T11:25:21.038Z,60.02
2023-10-18T11:27:49.200Z,59.33
2023-10-18T11:30:23.881Z,60.47
2023-10-18T11:32:55.324Z,59.91
2023-10-18T11:35:39.794Z,59.03
2023-10-18T11:38:11.036Z,59.87
2023-10-18T11:40:42.281Z,59.48
2023-10-18T11:43:10.567Z,59.32
2023-10-18T11:45:42.777Z,59.88
2023-10-18T11:48:11.766Z,59.56
2023-10-18T11:50:42.567Z,60.04
2023-10-18T11:53:14.261Z,58.38
2023-10-18T11:55:56.952Z,59.67
2023-10-18T11:58:27.763Z,57.93
2023-10-18T12:00:59.562Z,58.60
2023-10-18T12:03:29.107Z,57.97
2023-10-18T12:05:58.069Z,59.16
2023-10-18T12:08:31.426Z,59.55
2023-10-18T12:11:05.831Z,59.03
2023-10-18T12:13:35.022Z,58.77
2023-10-18T12:16:09.851Z,58.53
2023-10-18T12:18:38.059Z,58.07
2023-10-18T12:21:07.515Z,58.10
2023-10-18T12:23:36.959Z,58.33
2023-10-18T12:26:08.069Z,58.39
2023-10-18T12:28:38.951Z,57.73
2023-10-18T12:31:14.077Z,57.27
2023-10-18T12:33:43.337Z,57.62
2023-10-18T12:36:23.464Z,57.31
2023-10-18T12:38:51.878Z,57.76
2023-10-18T12:41:20.385Z,57.43
2023-10-18T12:43:48.785Z,57.82
2023-10-18T12:46:18.653Z,57.81
2023-10-18T12:48:50.721Z,57.36
2023-10-18T12:51:19.539Z,58.25
2023-10-18T12:53:49.500Z,57.08
2023-10-18T12:56:35.358Z,58.17
2023-10-18T12:59:24.101Z,58.01
2023-10-18T13:01:59.966Z,58.12
2023-10-18T13:04:28.406Z,56.89
2023-10-18T13:06:56.448Z,57.46
2023-10-18T13:09:24.172Z,57.35
2023-10-18T13:12:09.219Z,57.69
2023-10-18T13:14:36.528Z,56.93
2023-10-18T13:17:10.494Z,57.42
2023-10-18T13:19:43.063Z,57.94
2023-10-18T13:22:19.132Z,57.46
2023-10-18T13:24:47.662Z,57.20
2023-10-18T13:27:19.858Z,58.17
2023-10-18T13:30:05.218Z,57.90
2023-10-18T13:32:38.555Z,57.94
2023-10-18T13:35:16.199Z,58.14
2023-10-18T13:37:45.338Z,57.32
2023-10-18T13:40:19.992Z,56.40
2023-10-18T13:42:50.901Z,56.99
2023-10-18T13:45:21.232Z,56.82
2023-10-18T13:47:53.044Z,57.39
2023-10-18T13:50:21.277Z,56.92
2023-10-18T13:52:51.459Z,57.25
2023-10-18T13:55:21.767Z,57.22
2023-10-18T13:57:50.613Z,57.28
2023-10-18T14:00:22.861Z,57.64
2023-10-18T14:02:55.213Z,57.10
2023-10-18T14:05:26.734Z,57.37
2023-10-18T14:07:55.051Z,57.28
2023-10-18T14:10:28.635Z,57.91
2023-10-18T14:12:57.110Z,58.14
2023-10-18T14:15:26.553Z,58.10
2023-10-18T14:17:56.269Z,57.90
2023-10-18T14:20:27.193Z,57.38
2023-10-18T14:22:56.820Z,57.67
2023-10-18T14:25:25.704Z,56.94
2023-10-18T14:27:54.659Z,57.02
2023-10-18T14:30:22.751Z,57.22
2023-10-18T14:32:51.329Z,57.69
2023-10-18T14:35:20.989Z,58.05
2023-10-18T14:37:49.074Z,57.45
2023-10-18T14:40:18.221Z,56.98
2023-10-18T14:42:46.755Z,57.30
2023-10-18T14:45:15.749Z,57.74
2023-10-18T14:47:44.231Z,57.29
2023-10-18T14:50:12.807Z,57.19
2023-10-18T14:52:44.630Z,57.63
2023-10-18T14:55:14.002Z,57.19
2023-10-18T14:57:42.490Z,56.83
2023-10-18T15:00:12.996Z,57.18
2023-10-18T15:02:41.481Z,56.73
2023-10-18T15:05:10.347Z,57.26
2023-10-18T15:07:39.013Z,56.68
2023-10-18T15:10:10.254Z,57.29
2023-10-18T15:12:39.550Z,57.08
2023-10-18T15:15:10.334Z,57.73
2023-10-18T15:17:40.257Z,56.89
2023-10-18T15:20:09.946Z,56.57
2023-10-18T15:22:38.440Z,56.90
2023-10-18T15:25:10.384Z,57.24
2023-10-18T15:27:38.704Z,57.12
2023-10-18T15:30:09.470Z,57.45
2023-10-18T15:32:38.177Z,57.11
2023-10-18T15:35:07.473Z,57.46
2023-10-18T15:37:37.823Z,56.78
2023-10-18T15:40:08.795Z,57.22
2023-10-18T15:42:38.587Z,56.93
2023-10-18T15:45:10.807Z,57.03
2023-10-18T15:47:40.576Z,57.32
2023-10-18T15:50:10.328Z,58.08
2023-10-18T15:52:39.044Z,58.01
2023-10-18T15:55:14.418Z,57.69
2023-10-18T15:57:44.562Z,58.05
2023-10-18T16:00:24.576Z,57.76
2023-10-18T16:02:54.881Z,57.69
2023-10-18T16:05:26.006Z,57.75
2023-10-18T16:07:54.514Z,57.88
2023-10-18T16:10:24.788Z,58.40
2023-10-18T16:12:52.912Z,58.18
2023-10-18T16:15:22.403Z,58.39
2023-10-18T16:17:50.918Z,58.74
2023-10-18T16:20:19.907Z,58.42
2023-10-18T16:22:48.889Z,58.38
2023-10-18T16:25:17.793Z,58.98
2023-10-18T16:27:47.259Z,58.65
2023-10-18T16:30:16.072Z,59.02
2023-10-18T16:32:44.217Z,58.94
2023-10-18T16:35:17.194Z,58.62
2023-10-18T16:37:47.992Z,58.89
2023-10-18T16:40:19.548Z,58.83
2023-10-18T16:42:50.010Z,58.53
2023-10-18T16:45:18.618Z,59.06
2023-10-18T16:47:46.899Z,58.56
2023-10-18T16:50:16.269Z,58.49
2023-10-18T16:52:45.125Z,59.19
2023-10-18T16:55:16.628Z,58.70
2023-10-18T16:57:45.044Z,58.71
2023-10-18T17:00:16.721Z,59.07
2023-10-18T17:02:46.296Z,59.54
2023-10-18T17:05:15.610Z,60.02
2023-10-18T17:07:45.231Z,60.19
2023-10-18T17:10:17.733Z,59.54
2023-10-18T17:12:46.186Z,59.83
2023-10-18T17:15:17.778Z,59.88
2023-10-18T17:17:46.647Z,60.43
2023-10-18T17:20:16.757Z,59.92
2023-10-18T17:22:47.729Z,60.22
2023-10-18T17:25:17.987Z,60.83
2023-10-18T17:27:47.337Z,60.33
2023-10-18T17:30:18.098Z,60.27
2023-10-18T17:32:46.292Z,60.37
2023-10-18T17:35:17.581Z,60.40
2023-10-18T17:37:48.022Z,60.74
2023-10-18T17:40:18.131Z,60.59
2023-10-18T17:42:46.940Z,61.06
2023-10-18T17:45:19.636Z,60.29
2023-10-18T17:47:49.180Z,60.61
2023-10-18T17:50:19.520Z,60.38
2023-10-18T17:52:50.029Z,60.58
2023-10-18T17:55:19.309Z,60.88
2023-10-18T17:57:49.856Z,61.27
2023-10-18T18:00:26.253Z,61.51
2023-10-18T18:02:56.045Z,61.65
2023-10-18T18:05:24.925Z,61.49
2023-10-18T18:07:53.750Z,61.94
2023-10-18T18:10:26.233Z,61.54
2023-10-18T18:12:54.931Z,61.48
2023-10-18T18:15:25.905Z,62.01
2023-10-18T18:17:54.398Z,61.39
2023-10-18T18:20:24.243Z,61.82
2023-10-18T18:22:52.828Z,61.68
2023-10-18T18:25:21.817Z,61.66
2023-10-18T18:27:50.959Z,61.34
2023-10-18T18:30:19.367Z,61.13
2023-10-18T18:32:48.814Z,61.56
2023-10-18T18:35:16.908Z,61.45
2023-10-18T18:37:47.545Z,61.70
2023-10-18T18:40:17.211Z,62.15
2023-10-18T18:42:45.634Z,61.37
2023-10-18T18:45:19.439Z,62.17
2023-10-18T18:47:50.988Z,62.39
2023-10-18T18:50:19.607Z,62.64
2023-10-18T18:52:51.581Z,61.41
2023-10-18T18:55:20.951Z,61.26
2023-10-18T18:57:51.210Z,61.72
2023-10-18T19:00:21.604Z,62.51
2023-10-18T19:02:54.368Z,61.52
2023-10-18T19:05:23.667Z,61.69
2023-10-18T19:07:53.771Z,61.37
2023-10-18T19:10:22.351Z,62.08
2023-10-18T19:12:52.037Z,61.78
2023-10-18T19:15:22.613Z,61.37
2023-10-18T19:17:52.891Z,61.86
2023-10-18T19:20:22.999Z,62.47
2023-10-18T19:22:52.323Z,62.04
2023-10-18T19:25:21.632Z,61.79
2023-10-18T19:27:50.161Z,61.77
2023-10-18T19:30:20.719Z,61.80
2023-10-18T19:32:48.896Z,61.66
2023-10-18T19:35:18.807Z,62.11
2023-10-18T19:37:48.667Z,62.47
2023-10-18T19:40:17.941Z,62.58
2023-10-18T19:42:46.530Z,61.72
2023-10-18T19:45:17.000Z,61.60
2023-10-18T19:47:45.184Z,61.62
2023-10-18T19:50:13.584Z,62.68
2023-10-18T19:52:43.485Z,62.36
2023-10-18T19:55:12.460Z,61.87
2023-10-18T19:57:42.666Z,62.32
2023-10-18T20:00:11.710Z,62.64
2023-10-18T20:02:41.647Z,61.68
2023-10-18T20:05:10.711Z,61.66
2023-10-18T20:07:38.926Z,61.59
2023-10-18T20:10:10.770Z,61.59
2023-10-18T20:12:40.140Z,61.97
2023-10-18T20:15:09.804Z,62.25
2023-10-18T20:17:37.966Z,62.67
2023-10-18T20:20:09.709Z,62.12
2023-10-18T20:22:40.731Z,62.78
2023-10-18T20:25:14.228Z,63.14
2023-10-18T20:27:42.957Z,63.00
2023-10-18T20:30:13.129Z,63.29
2023-10-18T20:32:43.486Z,62.72
2023-10-18T20:35:13.445Z,62.53
2023-10-18T20:37:42.733Z,62.00
2023-10-18T20:40:13.066Z,62.73
2023-10-18T20:42:41.578Z,62.08
2023-10-18T20:45:11.961Z,62.63
2023-10-18T20:47:44.444Z,62.35
2023-10-18T20:50:18.919Z,62.51
2023-10-18T20:52:47.840Z,62.67
2023-10-18T20:55:18.434Z,62.84
2023-10-18T20:57:46.451Z,62.98
2023-10-18T21:00:17.164Z,62.56
2023-10-18T21:02:47.067Z,62.94
2023-10-18T21:05:20.001Z,62.97
2023-10-18T21:07:48.501Z,62.91
2023-10-18T21:10:19.573Z,62.96
2023-10-18T21:12:49.085Z,62.50
2023-10-18T21:15:18.438Z,62.63
2023-10-18T21:17:46.853Z,62.55
2023-10-18T21:20:17.476Z,63.04
2023-10-18T21:22:46.849Z,62.66
2023-10-18T21:25:15.815Z,62.96
2023-10-18T21:27:46.510Z,63.29
2023-10-18T21:30:16.142Z,63.22
2023-10-18T21:32:46.430Z,63.48
2023-10-18T21:35:14.783Z,62.86
2023-10-18T21:37:44.614Z,63.14
2023-10-18T21:40:19.182Z,62.57
2023-10-18T21:42:49.305Z,62.99
2023-10-18T21:45:17.825Z,63.12
2023-10-18T21:47:45.944Z,63.02
2023-10-18T21:50:14.648Z,63.05
2023-10-18T21:52:44.228Z,62.25
2023-10-18T21:55:13.322Z,61.96
2023-10-18T21:57:41.707Z,61.86
2023-10-18T22:00:35.413Z,61.83
2023-10-18T22:03:08.526Z,62.17
2023-10-18T22:05:36.956Z,62.46
2023-10-18T22:08:09.479Z,62.81
2023-10-18T22:10:45.965Z,62.94
2023-10-18T22:13:15.427Z,63.47
2023-10-18T22:15:58.157Z,63.58
2023-10-18T22:18:29.778Z,63.50
2023-10-18T22:21:00.794Z,63.00
2023-10-18T22:23:35.593Z,62.84
2023-10-18T22:26:14.192Z,63.33
2023-10-18T22:28:43.911Z,62.34
2023-10-18T22:31:13.579Z,63.17
2023-10-18T22:33:41.762Z,62.79
2023-10-18T22:36:10.633Z,63.14
2023-10-18T22:38:41.213Z,62.72
2023-10-18T22:41:14.539Z,62.43
2023-10-18T22:43:42.651Z,63.89
2023-10-18T22:46:18.213Z,63.41
2023-10-18T22:48:52.035Z,63.21
2023-10-18T22:51:34.513Z,63.44
2023-10-18T22:54:04.873Z,62.95
2023-10-18T22:56:53.213Z,62.87
2023-10-18T22:59:24.055Z,62.92
2023-10-18T23:01:52.868Z,63.54
2023-10-18T23:04:25.716Z,63.49
2023-10-18T23:06:58.814Z,63.12
2023-10-18T23:09:27.864Z,63.53
2023-10-18T23:11:59.135Z,63.48
2023-10-18T23:14:27.369Z,63.92
2023-10-18T23:17:11.089Z,64.10
2023-10-18T23:19:46.426Z,64.20
2023-10-18T23:22:32.903Z,63.84
2023-10-18T23:25:22.013Z,63.63
2023-10-18T23:28:07.602Z,63.44
2023-10-18T23:30:40.485Z,63.32
2023-10-18T23:33:22.660Z,63.85
2023-10-18T23:35:53.115Z,63.91
2023-10-18T23:38:25.568Z,63.60
2023-10-18T23:41:08.273Z,63.40
2023-10-18T23:43:50.468Z,63.46
2023-10-18T23:46:37.012Z,63.40
2023-10-18T23:49:22.727Z,63.64
2023-10-18T23:52:01.428Z,63.82
2023-10-18T23:54:31.441Z,64.11
2023-10-18T23:57:02.847Z,64.52
2023-10-18T23:59:31.487Z,64.83
